Time;durP1;ratioP1;P1;durP2;ratioP2;P2;SDS_P1;SDS_P2;PMS_P1;PMS_P2;Temp;Humidity;BMP_temperature;BMP_pressure;BME280_temperature;BME280_humidity;BME280_pressure;Samples;Min_cycle;Max_cycle;Signal;HPM_P1;HPM_P2
2023/05/26 00:00:12;;;;;;;28.42;7.00;;;;;;;9.62;100.00;102714.06;5002464;28;20042;-68
2023/05/26 00:02:39;;;;;;;27.10;6.65;;;;;;;9.56;100.00;102717.38;5001574;28;20082;-69
2023/05/26 00:05:09;;;;;;;27.38;7.13;;;;;;;9.52;100.00;102724.28;5002237;28;20066;-70
2023/05/26 00:07:40;;;;;;;27.38;6.82;;;;;;;9.47;100.00;102714.38;5001627;28;20043;-70
2023/05/26 00:10:10;;;;;;;28.48;6.72;;;;;;;9.45;100.00;102716.03;5001893;28;20038;-68
2023/05/26 00:12:36;;;;;;;26.98;6.60;;;;;;;9.41;100.00;102720.31;5002295;28;20413;-67
2023/05/26 00:15:02;;;;;;;29.67;7.43;;;;;;;9.39;100.00;102722.91;5005002;28;20045;-69
2023/05/26 00:17:28;;;;;;;27.20;6.85;;;;;;;9.37;100.00;102719.28;5001795;28;20032;-70
2023/05/26 00:19:54;;;;;;;27.08;7.00;;;;;;;9.34;100.00;102727.09;5001324;28;20038;-69
2023/05/26 00:22:19;;;;;;;27.67;6.82;;;;;;;9.21;100.00;102727.44;5001921;28;20130;-70
2023/05/26 00:24:46;;;;;;;29.20;7.10;;;;;;;9.27;100.00;102737.34;5002901;28;20034;-70
2023/05/26 00:27:11;;;;;;;28.15;6.97;;;;;;;9.24;100.00;102730.19;4983430;28;20038;-69
2023/05/26 00:29:37;;;;;;;29.15;7.40;;;;;;;9.19;100.00;102726.50;5002662;28;20026;-70
2023/05/26 00:32:03;;;;;;;29.88;7.07;;;;;;;9.11;100.00;102738.47;5002030;28;20025;-69
2023/05/26 00:34:29;;;;;;;30.25;7.38;;;;;;;9.13;100.00;102736.78;5001930;28;20412;-68
2023/05/26 00:36:55;;;;;;;27.85;7.03;;;;;;;9.08;100.00;102734.84;5002376;28;20065;-68
2023/05/26 00:39:20;;;;;;;27.70;6.63;;;;;;;8.98;100.00;102734.41;5001910;28;20030;-68
2023/05/26 00:41:45;;;;;;;29.83;7.28;;;;;;;8.94;100.00;102737.78;5002204;28;20535;-70
2023/05/26 00:44:11;;;;;;;27.83;7.18;;;;;;;8.93;100.00;102742.16;5001788;28;20477;-67
2023/05/26 00:46:36;;;;;;;28.15;7.43;;;;;;;8.87;100.00;102741.91;5000149;28;20034;-68
2023/05/26 00:49:01;;;;;;;30.70;7.53;;;;;;;8.83;100.00;102734.69;5002866;28;20037;-69
2023/05/26 00:51:27;;;;;;;27.00;7.20;;;;;;;8.79;100.00;102735.41;5003086;28;20080;-69
2023/05/26 00:53:53;;;;;;;27.63;7.05;;;;;;;8.83;100.00;102740.88;5002171;28;20030;-68
2023/05/26 00:56:19;;;;;;;26.85;7.05;;;;;;;8.78;100.00;102741.50;5000823;28;20057;-67
2023/05/26 00:58:45;;;;;;;27.15;7.15;;;;;;;8.76;100.00;102738.81;5002168;28;20038;-67
2023/05/26 01:01:15;;;;;;;28.58;6.88;;;;;;;8.67;100.00;102743.69;5002165;28;20466;-68
2023/05/26 01:03:40;;;;;;;27.23;7.18;;;;;;;8.57;100.00;102742.41;5002042;28;20516;-67
2023/05/26 01:06:06;;;;;;;28.85;6.80;;;;;;;8.59;100.00;102745.09;5001177;28;20125;-69
2023/05/26 01:08:32;;;;;;;29.30;7.68;;;;;;;8.63;100.00;102744.41;5001636;28;20064;-68
2023/05/26 01:11:22;;;;;;;31.50;7.43;;;;;;;8.52;100.00;102742.22;5005189;28;20033;-69
2023/05/26 01:13:54;;;;;;;30.17;6.90;;;;;;;8.52;100.00;102738.69;5003950;28;20037;-69
2023/05/26 01:16:27;;;;;;;27.27;6.90;;;;;;;8.51;100.00;102752.69;5005859;28;20031;-67
2023/05/26 01:19:16;;;;;;;;;;;;;;;8.51;100.00;102755.31;5005910;28;20117;-64
2023/05/26 01:21:44;;;;;;;29.08;7.85;;;;;;;8.38;100.00;102754.75;5005200;28;20004;-65
2023/05/26 01:24:11;;;;;;;28.77;7.00;;;;;;;8.38;100.00;102757.38;5004945;28;20111;-65
2023/05/26 01:26:49;;;;;;;30.35;7.68;;;;;;;8.32;100.00;102757.13;5001694;28;20022;-64
2023/05/26 01:29:20;;;;;;;29.75;7.15;;;;;;;8.26;100.00;102756.84;5005552;28;20030;-65
2023/05/26 01:31:45;;;;;;;27.73;7.18;;;;;;;8.23;100.00;102756.72;5005040;28;20030;-65
2023/05/26 01:34:10;;;;;;;29.55;7.22;;;;;;;8.23;100.00;102751.44;5004961;28;20462;-65
2023/05/26 01:36:36;;;;;;;29.13;7.05;;;;;;;8.21;100.00;102753.09;5005237;28;20041;-66
2023/05/26 01:39:03;;;;;;;27.52;6.75;;;;;;;8.13;100.00;102758.03;5002314;28;20038;-65
2023/05/26 01:41:35;;;;;;;27.10;6.72;;;;;;;8.05;100.00;102758.53;5003953;28;20030;-65
2023/05/26 01:44:12;;;;;;;28.40;7.50;;;;;;;8.11;100.00;102761.41;5003911;28;20049;-64
2023/05/26 01:46:47;;;;;;;29.35;6.70;;;;;;;8.02;100.00;102757.56;5005908;28;20049;-64
2023/05/26 01:49:13;;;;;;;27.70;6.45;;;;;;;8.06;100.00;102753.31;5005564;28;20144;-64
2023/05/26 01:51:43;;;;;;;28.75;6.43;;;;;;;8.00;100.00;102759.22;5002698;28;20491;-65
2023/05/26 01:54:09;;;;;;;28.67;6.75;;;;;;;8.02;100.00;102760.19;5004885;28;20022;-64
2023/05/26 01:56:36;;;;;;;30.30;6.72;;;;;;;8.03;100.00;102758.44;5001748;28;20030;-65
2023/05/26 01:59:02;;;;;;;27.52;6.60;;;;;;;8.01;100.00;102755.75;5005660;28;20029;-65
2023/05/26 02:01:28;;;;;;;29.95;6.70;;;;;;;8.01;100.00;102766.28;5004845;28;20081;-64
2023/05/26 02:03:54;;;;;;;30.17;6.22;;;;;;;7.93;100.00;102759.75;5004857;28;20440;-65
2023/05/26 02:06:21;;;;;;;27.85;6.70;;;;;;;7.87;100.00;102761.22;5003624;28;20026;-67
2023/05/26 02:08:47;;;;;;;28.88;6.70;;;;;;;7.88;100.00;102763.94;5004842;28;20084;-65
2023/05/26 02:11:12;;;;;;;30.95;7.38;;;;;;;7.83;100.00;102761.09;5003731;28;20038;-65
2023/05/26 02:13:37;;;;;;;28.73;6.80;;;;;;;7.82;100.00;102758.34;5003558;28;20093;-65
2023/05/26 02:16:03;;;;;;;28.63;6.68;;;;;;;7.75;100.00;102761.56;5005282;28;20105;-66
2023/05/26 02:18:28;;;;;;;30.42;6.70;;;;;;;7.77;100.00;102767.78;5004204;28;20027;-66
2023/05/26 02:20:54;;;;;;;30.85;6.53;;;;;;;7.71;100.00;102770.16;5003703;28;20039;-66
2023/05/26 02:23:19;;;;;;;29.27;6.65;;;;;;;7.70;100.00;102769.22;5004046;28;20469;-67
2023/05/26 02:25:45;;;;;;;28.60;6.60;;;;;;;7.63;100.00;102772.41;5004467;28;20038;-65
2023/05/26 02:28:10;;;;;;;28.58;6.55;;;;;;;7.62;100.00;102771.50;5004245;28;20523;-67
2023/05/26 02:30:35;;;;;;;27.33;6.45;;;;;;;7.60;100.00;102778.44;5004267;28;20042;-66
2023/05/26 02:33:00;;;;;;;28.48;6.20;;;;;;;7.52;100.00;102777.16;5003148;28;20077;-67
2023/05/26 02:35:26;;;;;;;28.15;6.50;;;;;;;7.45;100.00;102775.97;5003438;28;20034;-68
2023/05/26 02:37:51;;;;;;;29.95;6.80;;;;;;;7.43;100.00;102768.84;5003329;28;20117;-68
2023/05/26 02:40:16;;;;;;;28.60;6.80;;;;;;;7.39;100.00;102775.66;5005305;28;20065;-67
2023/05/26 02:42:42;;;;;;;29.67;6.85;;;;;;;7.41;100.00;102765.22;5003673;28;20081;-67
2023/05/26 02:45:08;;;;;;;28.73;6.43;;;;;;;7.35;100.00;102772.81;5003358;28;20548;-67
2023/05/26 02:47:34;;;;;;;30.88;6.68;;;;;;;7.33;100.00;102773.63;5003197;28;20109;-67
2023/05/26 02:49:59;;;;;;;28.98;6.50;;;;;;;7.32;100.00;102766.59;5003918;28;20146;-68
2023/05/26 02:52:25;;;;;;;29.63;6.80;;;;;;;7.29;100.00;102766.44;5005875;28;20058;-68
2023/05/26 02:54:50;;;;;;;28.90;6.32;;;;;;;7.28;100.00;102771.63;5003308;28;20046;-68
2023/05/26 02:57:16;;;;;;;30.35;6.80;;;;;;;7.17;100.00;102771.09;5002823;28;20066;-71
2023/05/26 02:59:41;;;;;;;26.55;6.43;;;;;;;7.22;100.00;102774.84;5002410;28;20030;-69
2023/05/26 03:02:07;;;;;;;31.10;6.82;;;;;;;7.15;100.00;102772.78;5003089;28;20072;-68
2023/05/26 03:04:32;;;;;;;29.95;6.55;;;;;;;7.11;100.00;102766.44;5002727;28;20544;-70
2023/05/26 03:06:57;;;;;;;28.65;6.55;;;;;;;7.11;100.00;102776.06;5004398;28;20081;-67
2023/05/26 03:09:22;;;;;;;26.60;6.22;;;;;;;7.07;100.00;102771.47;5002435;28;20104;-67
2023/05/26 03:11:48;;;;;;;28.42;6.82;;;;;;;7.03;100.00;102769.50;5002758;28;20066;-71
2023/05/26 03:14:13;;;;;;;28.80;6.57;;;;;;;7.00;100.00;102769.38;5003508;28;20041;-70
2023/05/26 03:16:38;;;;;;;31.45;7.35;;;;;;;6.95;100.00;102767.41;5002610;28;20037;-67
2023/05/26 03:19:04;;;;;;;31.35;7.20;;;;;;;6.95;100.00;102767.41;5002673;28;20132;-69
2023/05/26 03:21:30;;;;;;;31.92;7.03;;;;;;;6.97;100.00;102771.03;5002383;28;20188;-67
2023/05/26 03:23:55;;;;;;;32.85;7.20;;;;;;;6.94;100.00;102773.47;5002565;28;20026;-69
2023/05/26 03:26:21;;;;;;;30.58;6.80;;;;;;;6.92;100.00;102776.88;5001853;28;20040;-68
2023/05/26 03:28:46;;;;;;;31.02;7.30;;;;;;;6.88;100.00;102783.69;5002373;28;20429;-68
2023/05/26 03:31:12;;;;;;;31.40;7.07;;;;;;;6.87;100.00;102788.88;5003377;28;20500;-68
2023/05/26 03:33:37;;;;;;;30.38;6.68;;;;;;;6.88;100.00;102783.69;5002273;28;20029;-68
2023/05/26 03:36:03;;;;;;;30.63;7.65;;;;;;;6.87;100.00;102787.16;5001065;28;20037;-68
2023/05/26 03:38:28;;;;;;;35.65;7.13;;;;;;;6.89;100.00;102800.41;5003357;28;20041;-69
2023/05/26 03:40:53;;;;;;;31.25;6.95;;;;;;;6.90;100.00;102803.09;5003141;28;20065;-70
2023/05/26 03:43:19;;;;;;;28.52;6.65;;;;;;;6.88;100.00;102796.84;5003591;28;20026;-68
2023/05/26 03:45:44;;;;;;;30.42;6.93;;;;;;;6.91;100.00;102801.38;5001195;28;20030;-67
2023/05/26 03:48:12;;;;;;;31.42;7.22;;;;;;;6.88;100.00;102799.47;5003195;28;20400;-67
2023/05/26 03:50:39;;;;;;;29.48;6.65;;;;;;;6.86;100.00;102810.72;5002542;28;20049;-71
2023/05/26 03:53:04;;;;;;;30.55;7.05;;;;;;;6.87;100.00;102815.19;5002705;28;20113;-68
2023/05/26 03:55:33;;;;;;;30.02;7.00;;;;;;;6.87;100.00;102808.19;5001853;28;20526;-68
2023/05/26 03:57:58;;;;;;;29.33;7.28;;;;;;;6.87;100.00;102813.44;5002606;28;20038;-68
2023/05/26 04:00:27;;;;;;;32.47;6.80;;;;;;;6.83;100.00;102797.44;5002781;28;20088;-67
2023/05/26 04:02:53;;;;;;;31.45;7.53;;;;;;;6.78;100.00;102805.97;5001867;28;20050;-69
2023/05/26 04:05:18;;;;;;;29.42;7.45;;;;;;;6.83;100.00;102794.81;5000917;28;20022;-66
2023/05/26 04:07:44;;;;;;;28.52;7.07;;;;;;;6.79;100.00;102799.03;5002229;28;20105;-66
2023/05/26 04:10:11;;;;;;;29.70;7.05;;;;;;;6.73;100.00;102799.59;5001788;28;20030;-66
2023/05/26 04:12:37;;;;;;;27.42;7.10;;;;;;;6.76;100.00;102799.75;5001551;28;20027;-65
2023/05/26 04:15:03;;;;;;;30.00;7.55;;;;;;;6.79;100.00;102801.66;5000610;28;20027;-65
2023/05/26 04:17:28;;;;;;;30.77;7.85;;;;;;;6.82;100.00;102801.81;5002647;28;20034;-66
2023/05/26 04:19:53;;;;;;;30.38;7.70;;;;;;;6.78;100.00;102811.25;5002515;28;20125;-66
2023/05/26 04:22:19;;;;;;;29.15;7.60;;;;;;;6.83;100.00;102813.22;5002946;28;20373;-70
2023/05/26 04:24:44;;;;;;;29.38;7.38;;;;;;;6.79;100.00;102820.06;5001301;28;20072;-66
2023/05/26 04:27:10;;;;;;;27.63;7.32;;;;;;;6.78;100.00;102815.59;5001481;28;20037;-65
2023/05/26 04:29:35;;;;;;;33.35;7.95;;;;;;;6.76;100.00;102812.91;5002589;28;20449;-65
2023/05/26 04:32:00;;;;;;;32.10;8.07;;;;;;;6.77;100.00;102811.16;5002446;28;20151;-66
2023/05/26 04:34:26;;;;;;;29.35;7.78;;;;;;;6.81;100.00;102815.75;5002232;28;20041;-66
2023/05/26 04:36:51;;;;;;;30.15;7.68;;;;;;;6.82;100.00;102820.19;5001318;28;20022;-66
2023/05/26 04:39:17;;;;;;;30.08;7.63;;;;;;;6.84;100.00;102821.16;5001455;28;20038;-66
2023/05/26 04:41:43;;;;;;;26.65;7.15;;;;;;;6.86;100.00;102824.81;5002315;28;20079;-66
2023/05/26 04:44:09;;;;;;;32.03;8.32;;;;;;;6.93;100.00;102819.03;5002806;28;20045;-66
2023/05/26 04:46:37;;;;;;;30.05;8.05;;;;;;;6.96;100.00;102828.78;5003883;28;20034;-70
2023/05/26 04:49:03;;;;;;;30.42;8.23;;;;;;;6.96;100.00;102821.81;5006327;28;20026;-69
2023/05/26 04:51:32;;;;;;;30.60;8.10;;;;;;;7.02;100.00;102826.47;5002624;28;20385;-70
2023/05/26 04:53:58;;;;;;;33.03;8.32;;;;;;;7.01;100.00;102832.56;5005771;28;20022;-66
2023/05/26 04:56:23;;;;;;;32.20;7.97;;;;;;;7.04;100.00;102821.31;5005806;28;20152;-71
2023/05/26 04:58:48;;;;;;;29.98;7.70;;;;;;;7.12;100.00;102825.19;5005270;28;20084;-69
2023/05/26 05:01:16;;;;;;;32.42;7.93;;;;;;;7.18;100.00;102829.88;5005613;28;20038;-70
2023/05/26 05:03:42;;;;;;;29.73;7.78;;;;;;;7.24;100.00;102840.72;5005655;28;20040;-71
2023/05/26 05:06:09;;;;;;;28.33;7.55;;;;;;;7.27;100.00;102844.38;5005886;28;20092;-69
2023/05/26 05:08:36;;;;;;;30.52;7.68;;;;;;;7.37;100.00;102842.19;5005791;28;20036;-70
2023/05/26 05:11:02;;;;;;;27.58;7.30;;;;;;;7.40;100.00;102837.13;5005848;28;20034;-70
2023/05/26 05:13:28;;;;;;;29.95;7.68;;;;;;;7.44;100.00;102839.03;5005165;28;20511;-70
2023/05/26 05:15:53;;;;;;;32.28;7.93;;;;;;;7.49;100.00;102832.28;5003440;28;20437;-70
2023/05/26 05:18:18;;;;;;;31.30;7.93;;;;;;;7.56;100.00;102844.00;5005807;28;20069;-69
2023/05/26 05:20:44;;;;;;;32.13;7.82;;;;;;;7.65;100.00;102836.56;5006598;28;20041;-71
2023/05/26 05:23:09;;;;;;;33.22;8.43;;;;;;;7.71;100.00;102844.75;5005157;28;20037;-66
2023/05/26 05:25:34;;;;;;;30.92;7.97;;;;;;;7.75;100.00;102833.53;5006140;28;20445;-71
2023/05/26 05:28:00;;;;;;;32.45;8.10;;;;;;;7.78;100.00;102843.31;5005164;28;20397;-68
2023/05/26 05:30:25;;;;;;;29.67;8.27;;;;;;;7.87;100.00;102841.13;5001667;28;20022;-71
2023/05/26 05:32:50;;;;;;;30.50;7.57;;;;;;;7.89;100.00;102855.25;4998986;28;20478;-73
2023/05/26 05:35:16;;;;;;;30.60;7.43;;;;;;;8.00;100.00;102848.75;5005908;28;20384;-72
2023/05/26 05:37:41;;;;;;;29.05;7.50;;;;;;;8.06;100.00;102853.41;5005696;28;20026;-70
2023/05/26 05:40:07;;;;;;;31.02;7.82;;;;;;;8.08;100.00;102851.78;5003881;28;20034;-73
2023/05/26 05:42:33;;;;;;;30.60;7.97;;;;;;;8.19;100.00;102854.91;5003913;28;20042;-79
2023/05/26 05:44:58;;;;;;;32.08;8.15;;;;;;;8.21;100.00;102847.94;5006036;28;20053;-74
2023/05/26 05:47:23;;;;;;;32.45;7.72;;;;;;;8.27;100.00;102844.69;5003939;28;20034;-72
2023/05/26 05:49:49;;;;;;;31.00;8.18;;;;;;;8.34;100.00;102855.59;5004373;28;20037;-76
2023/05/26 05:52:14;;;;;;;30.52;7.93;;;;;;;8.40;100.00;102847.06;5004771;28;20061;-73
2023/05/26 05:54:40;;;;;;;33.00;7.88;;;;;;;8.53;100.00;102853.81;4986608;28;20089;-73
2023/05/26 05:57:05;;;;;;;30.40;7.85;;;;;;;8.60;100.00;102860.28;5004114;28;20041;-69
2023/05/26 05:59:31;;;;;;;32.03;7.30;;;;;;;8.73;100.00;102865.25;5004299;28;20038;-68
2023/05/26 06:01:57;;;;;;;30.02;7.05;;;;;;;8.82;100.00;102867.41;5003299;28;20047;-69
2023/05/26 06:04:22;;;;;;;30.73;7.25;;;;;;;8.87;100.00;102871.16;5003754;28;20118;-72
2023/05/26 06:06:49;;;;;;;30.10;6.80;;;;;;;8.96;100.00;102862.72;5004433;28;20121;-69
2023/05/26 06:09:15;;;;;;;29.20;6.75;;;;;;;9.06;100.00;102872.84;5004143;28;20124;-67
2023/05/26 06:11:40;;;;;;;28.17;6.88;;;;;;;9.15;100.00;102874.97;5006833;28;20030;-68
2023/05/26 06:14:06;;;;;;;30.60;6.80;;;;;;;9.23;100.00;102874.47;5003590;28;20037;-66
2023/05/26 06:16:32;;;;;;;29.40;6.72;;;;;;;9.25;100.00;102882.44;5006077;28;20041;-70
2023/05/26 06:18:57;;;;;;;32.42;7.28;;;;;;;9.32;100.00;102884.50;5004595;28;20034;-69
2023/05/26 06:21:22;;;;;;;30.30;7.13;;;;;;;9.34;100.00;102877.53;5004825;28;20030;-67
2023/05/26 06:23:49;;;;;;;29.15;6.97;;;;;;;9.41;100.00;102883.97;5005210;28;20033;-67
2023/05/26 06:26:15;;;;;;;30.15;6.88;;;;;;;9.49;100.00;102877.25;5004358;28;20041;-66
2023/05/26 06:28:40;;;;;;;30.85;7.57;;;;;;;9.56;100.00;102881.06;5001616;28;20140;-67
2023/05/26 06:31:06;;;;;;;29.95;6.72;;;;;;;9.59;100.00;102883.81;5002797;28;20275;-68
2023/05/26 06:33:31;;;;;;;34.13;6.82;;;;;;;9.66;100.00;102877.97;5003437;28;20037;-67
2023/05/26 06:35:56;;;;;;;31.55;7.05;;;;;;;9.64;100.00;102869.09;5005846;28;20108;-68
2023/05/26 06:38:22;;;;;;;31.20;6.78;;;;;;;9.66;100.00;102880.59;4985600;28;20548;-68
2023/05/26 06:40:47;;;;;;;30.35;6.75;;;;;;;9.66;100.00;102872.69;5001994;28;20034;-67
2023/05/26 06:43:13;;;;;;;32.35;7.20;;;;;;;9.73;100.00;102877.38;5004378;28;20037;-65
2023/05/26 06:45:38;;;;;;;29.80;6.95;;;;;;;9.80;100.00;102874.97;5004012;28;20034;-67
2023/05/26 06:48:03;;;;;;;30.00;7.07;;;;;;;9.85;100.00;102874.31;5004206;28;20030;-66
2023/05/26 06:50:29;;;;;;;29.25;7.20;;;;;;;9.86;100.00;102883.13;5003849;28;20022;-67
2023/05/26 06:52:54;;;;;;;28.73;7.00;;;;;;;9.89;100.00;102881.53;5005010;28;20421;-67
2023/05/26 06:55:20;;;;;;;28.15;6.97;;;;;;;9.94;100.00;102876.41;5002639;28;20392;-66
2023/05/26 06:57:45;;;;;;;27.85;6.70;;;;;;;10.08;100.00;102879.59;5004934;28;20034;-69
2023/05/26 07:00:11;;;;;;;27.65;6.75;;;;;;;10.13;100.00;102875.38;5003456;28;20058;-65
2023/05/26 07:02:36;;;;;;;31.55;7.10;;;;;;;10.20;100.00;102879.19;5002777;28;20097;-69
2023/05/26 07:05:03;;;;;;;28.27;6.88;;;;;;;10.28;100.00;102878.63;5002779;28;20027;-67
2023/05/26 07:07:28;;;;;;;30.45;6.97;;;;;;;10.37;100.00;102888.69;5002082;28;20026;-66
2023/05/26 07:09:53;;;;;;;29.80;7.22;;;;;;;10.42;100.00;102888.84;5002931;28;20036;-65
2023/05/26 07:12:20;;;;;;;29.88;7.50;;;;;;;10.50;100.00;102883.84;5003312;28;20037;-66
2023/05/26 07:14:46;;;;;;;31.27;7.15;;;;;;;10.55;100.00;102895.50;5002941;28;20031;-70
2023/05/26 07:17:11;;;;;;;29.40;6.93;;;;;;;10.60;100.00;102886.91;4986689;28;20037;-65
2023/05/26 07:19:37;;;;;;;30.65;6.75;;;;;;;10.69;100.00;102872.19;5003041;28;20038;-66
2023/05/26 07:22:02;;;;;;;30.27;7.53;;;;;;;10.67;100.00;102882.72;5003367;28;20025;-66
2023/05/26 07:24:28;;;;;;;30.38;7.13;;;;;;;10.74;100.00;102890.03;5003378;28;20070;-71
2023/05/26 07:26:53;;;;;;;28.30;7.10;;;;;;;10.88;100.00;102886.97;5002959;28;20034;-71
2023/05/26 07:29:18;;;;;;;28.85;6.70;;;;;;;10.92;100.00;102888.88;5002672;28;20066;-71
2023/05/26 07:31:44;;;;;;;24.95;6.43;;;;;;;10.90;100.00;102894.13;5002730;28;20069;-71
2023/05/26 07:34:10;;;;;;;26.52;6.68;;;;;;;10.98;100.00;102891.75;5003107;28;20052;-72
2023/05/26 07:36:35;;;;;;;27.42;6.90;;;;;;;11.17;100.00;102890.66;5003203;28;20482;-71
2023/05/26 07:39:01;;;;;;;26.92;6.70;;;;;;;11.29;100.00;102883.13;5002994;28;20064;-68
2023/05/26 07:41:26;;;;;;;27.13;6.57;;;;;;;11.41;100.00;102879.97;4987071;28;20050;-68
2023/05/26 07:43:52;;;;;;;28.00;6.80;;;;;;;11.51;100.00;102884.72;5002888;28;20037;-71
2023/05/26 07:46:17;;;;;;;27.75;6.85;;;;;;;11.59;100.00;102889.38;5000907;28;20030;-68
2023/05/26 07:48:43;;;;;;;28.83;7.10;;;;;;;11.56;100.00;102887.53;5001655;28;20034;-68
2023/05/26 07:51:08;;;;;;;27.42;6.63;;;;;;;11.46;100.00;102888.06;5003303;28;20021;-70
2023/05/26 07:53:35;;;;;;;30.15;7.45;;;;;;;11.56;100.00;102889.28;4999099;28;20083;-70
2023/05/26 07:56:00;;;;;;;27.77;6.25;;;;;;;11.75;100.00;102886.41;5000330;28;20030;-71
2023/05/26 07:58:26;;;;;;;28.08;6.63;;;;;;;11.98;100.00;102883.59;4999612;28;20061;-71
2023/05/26 08:00:51;;;;;;;27.77;7.13;;;;;;;11.97;100.00;102897.69;5001918;28;20069;-70
2023/05/26 08:03:17;;;;;;;29.85;7.18;;;;;;;12.03;100.00;102898.78;5001999;28;20413;-72
2023/05/26 08:05:43;;;;;;;28.20;6.72;;;;;;;12.04;100.00;102894.38;5001495;28;20116;-72
2023/05/26 08:08:08;;;;;;;27.45;6.18;;;;;;;12.13;100.00;102892.03;5001270;28;20026;-70
2023/05/26 08:10:33;;;;;;;29.88;7.50;;;;;;;12.28;100.00;102893.34;5000094;28;20026;-70
2023/05/26 08:12:59;;;;;;;29.48;6.78;;;;;;;12.35;100.00;102884.72;4996893;28;20547;-76
2023/05/26 08:15:24;;;;;;;28.08;6.63;;;;;;;12.46;100.00;102899.16;5002763;28;20022;-74
2023/05/26 08:17:50;;;;;;;25.75;6.25;;;;;;;12.63;100.00;102896.13;4997475;28;20031;-75
2023/05/26 08:20:16;;;;;;;28.40;6.95;;;;;;;12.70;100.00;102898.09;4996786;28;20084;-74
2023/05/26 08:22:41;;;;;;;27.95;6.20;;;;;;;12.67;100.00;102892.69;4998801;28;20381;-70
2023/05/26 08:25:07;;;;;;;27.83;6.57;;;;;;;12.72;100.00;102891.06;5000585;28;20114;-72
2023/05/26 08:27:32;;;;;;;27.50;6.70;;;;;;;12.79;100.00;102885.06;4999635;28;20481;-72
2023/05/26 08:29:58;;;;;;;29.10;6.72;;;;;;;12.81;100.00;102883.34;5002832;28;20030;-73
2023/05/26 08:32:24;;;;;;;26.35;6.30;;;;;;;12.94;100.00;102881.91;4982286;28;20500;-72
2023/05/26 08:34:49;;;;;;;25.35;6.28;;;;;;;13.10;100.00;102883.22;5001758;28;20034;-71
2023/05/26 08:37:16;;;;;;;28.45;6.50;;;;;;;13.51;100.00;102883.41;5003108;28;20465;-70
2023/05/26 08:39:42;;;;;;;28.67;6.40;;;;;;;13.86;92.38;102888.69;5000985;28;20113;-75
2023/05/26 08:42:14;;;;;;;26.85;6.25;;;;;;;14.06;88.96;102882.91;5001909;28;20113;-76
2023/05/26 08:44:39;;;;;;;26.73;6.40;;;;;;;13.95;88.96;102886.22;5001589;28;20693;-74
2023/05/26 08:47:06;;;;;;;23.20;5.57;;;;;;;13.90;86.61;102871.91;5002515;28;20397;-73
2023/05/26 08:49:39;;;;;;;26.45;6.05;;;;;;;13.97;91.02;102872.09;5002151;28;20109;-75
2023/05/26 08:52:13;;;;;;;24.77;6.35;;;;;;;14.04;88.99;102882.88;5002141;28;20057;-76
2023/05/26 08:54:39;;;;;;;25.90;6.38;;;;;;;14.01;84.24;102880.16;5001440;28;20065;-75
2023/05/26 08:57:06;;;;;;;27.27;6.20;;;;;;;14.22;84.76;102879.72;5000701;28;20072;-74
2023/05/26 08:59:32;;;;;;;23.27;5.45;;;;;;;14.35;76.99;102872.00;5001003;28;20050;-69
2023/05/26 09:01:58;;;;;;;25.15;5.80;;;;;;;14.30;75.10;102879.91;5000790;28;20556;-70
2023/05/26 09:04:31;;;;;;;24.48;5.65;;;;;;;14.56;77.68;102880.44;5000737;28;20308;-70
2023/05/26 09:06:57;;;;;;;25.92;6.28;;;;;;;14.52;76.25;102864.34;5000809;28;20358;-72
2023/05/26 09:09:23;;;;;;;27.77;6.43;;;;;;;14.58;76.62;102883.13;5001251;28;20022;-69
2023/05/26 09:11:49;;;;;;;24.58;5.57;;;;;;;14.72;75.09;102879.00;5001166;28;20578;-70
2023/05/26 09:14:16;;;;;;;25.38;6.07;;;;;;;14.90;74.65;102882.88;5001343;28;20035;-73
2023/05/26 09:16:42;;;;;;;25.13;6.28;;;;;;;15.01;71.76;102885.72;5001337;28;20018;-72
2023/05/26 09:19:13;;;;;;;25.20;5.85;;;;;;;15.21;70.06;102884.31;4980936;28;20394;-70
2023/05/26 09:21:44;;;;;;;25.40;6.13;;;;;;;15.18;67.08;102891.38;5001446;28;20534;-73
2023/05/26 09:24:13;;;;;;;24.88;6.15;;;;;;;15.27;68.25;102892.41;5001961;28;20026;-71
2023/05/26 09:26:38;;;;;;;22.95;5.80;;;;;;;15.47;66.55;102886.53;5002274;28;20057;-71
2023/05/26 09:29:06;;;;;;;46.53;23.75;;;;;;;15.68;66.51;102881.56;5001016;28;20030;-71
2023/05/26 09:31:43;;;;;;;25.77;6.35;;;;;;;15.80;66.99;102885.28;5004905;28;20242;-71
2023/05/26 09:34:09;;;;;;;24.67;5.88;;;;;;;16.12;67.18;102887.53;5005466;28;20120;-71
2023/05/26 09:36:36;;;;;;;25.13;5.78;;;;;;;16.19;63.64;102890.31;5005366;28;20118;-71
2023/05/26 09:39:03;;;;;;;22.40;5.35;;;;;;;16.41;62.91;102887.00;5004061;28;20165;-70
2023/05/26 09:41:40;;;;;;;22.65;5.55;;;;;;;16.21;59.51;102885.00;5004070;28;20488;-70
2023/05/26 09:44:16;;;;;;;23.02;5.65;;;;;;;16.37;59.89;102894.97;5005460;28;20442;-71
2023/05/26 09:46:44;;;;;;;23.23;5.47;;;;;;;16.44;58.81;102892.38;5006004;28;20084;-71
2023/05/26 09:49:18;;;;;;;24.73;6.07;;;;;;;16.60;60.76;102890.78;5004113;28;20018;-71
2023/05/26 09:51:45;;;;;;;23.95;5.88;;;;;;;16.97;59.06;102893.91;5005745;28;20026;-70
2023/05/26 09:54:12;;;;;;;22.83;5.57;;;;;;;17.51;57.71;102886.38;5005477;28;20057;-68
2023/05/26 09:56:47;;;;;;;23.73;5.60;;;;;;;18.58;53.39;102887.88;5004725;28;20026;-70
2023/05/26 09:59:15;;;;;;;22.55;5.50;;;;;;;19.99;47.47;102879.03;5004715;28;20485;-69
2023/05/26 10:01:42;;;;;;;22.00;5.40;;;;;;;21.55;45.18;102875.44;4986656;28;20038;-70
2023/05/26 10:04:08;;;;;;;23.25;5.65;;;;;;;22.65;40.36;102873.25;5004304;28;20038;-70
2023/05/26 10:06:35;;;;;;;22.77;5.60;;;;;;;23.58;38.55;102878.97;5001878;28;20064;-69
2023/05/26 10:09:02;;;;;;;20.92;4.93;;;;;;;24.00;36.28;102881.78;4986010;28;20063;-70
2023/05/26 10:11:29;;;;;;;23.63;5.63;;;;;;;24.74;35.64;102882.00;5004088;28;20027;-70
2023/05/26 10:13:57;;;;;;;22.73;5.22;;;;;;;24.79;33.81;102881.94;5004312;28;20029;-71
2023/05/26 10:16:23;;;;;;;24.48;5.43;;;;;;;24.93;34.17;102887.91;5004484;28;20034;-70
2023/05/26 10:18:49;;;;;;;21.33;4.95;;;;;;;25.18;35.15;102873.78;5003174;28;20040;-70
2023/05/26 10:21:17;;;;;;;22.55;5.30;;;;;;;25.72;32.75;102865.13;5004202;28;20057;-71
2023/05/26 10:24:15;;;;;;;21.75;5.28;;;;;;;26.57;33.28;102869.91;5004562;28;20377;-71
2023/05/26 10:27:21;;;;;;;21.67;4.80;;;;;;;26.82;34.39;102866.44;4959799;28;20116;-70
2023/05/26 10:29:54;;;;;;;23.33;5.35;;;;;;;26.92;30.44;102867.91;5008455;28;20028;-70
2023/05/26 10:32:48;;;;;;;22.60;5.35;;;;;;;27.35;32.80;102861.06;5002941;28;20022;-70
2023/05/26 10:35:23;;;;;;;22.80;5.05;;;;;;;27.19;31.67;102859.75;5001850;28;20073;-68
2023/05/26 10:38:12;;;;;;;21.55;5.30;;;;;;;27.23;31.75;102859.63;5004234;28;20060;-69
2023/05/26 10:40:43;;;;;;;22.30;5.40;;;;;;;27.37;29.92;102875.47;5004123;28;20465;-69
2023/05/26 10:43:13;;;;;;;23.30;5.35;;;;;;;27.78;28.72;102867.66;5002214;28;20421;-69
2023/05/26 10:45:46;;;;;;;22.77;5.40;;;;;;;27.64;28.17;102864.56;5003402;28;20416;-70
2023/05/26 10:48:12;;;;;;;22.25;4.95;;;;;;;28.17;28.33;102864.41;5004400;28;20030;-69
2023/05/26 10:50:59;;;;;;;21.52;5.07;;;;;;;28.85;28.22;102855.44;5004506;28;20582;-68
2023/05/26 10:53:30;;;;;;;20.95;5.28;;;;;;;28.90;28.14;102857.94;5004073;28;20030;-69
2023/05/26 10:56:14;;;;;;;22.27;4.95;;;;;;;27.82;27.05;102855.72;5002940;28;20030;-68
2023/05/26 10:58:45;;;;;;;21.50;5.22;;;;;;;28.33;27.92;102858.38;5003371;28;20025;-68
2023/05/26 11:01:16;;;;;;;21.60;5.30;;;;;;;29.04;26.71;102855.53;5004128;28;20029;-69
2023/05/26 11:03:45;;;;;;;22.63;5.20;;;;;;;28.98;25.71;102848.50;5003859;28;20129;-69
2023/05/26 11:06:13;;;;;;;20.80;5.18;;;;;;;29.09;25.33;102853.50;5001830;28;20455;-68
2023/05/26 11:08:47;;;;;;;20.65;4.60;;;;;;;29.12;26.06;102847.03;5003393;28;20026;-69
2023/05/26 11:11:26;;;;;;;20.17;4.80;;;;;;;29.59;25.12;102846.81;5004033;28;20469;-69
2023/05/26 11:14:02;;;;;;;22.30;5.10;;;;;;;30.28;25.01;102844.59;5003604;28;20053;-68
2023/05/26 11:16:27;;;;;;;19.58;4.93;;;;;;;30.63;22.79;102840.16;5003455;28;20068;-69